Time;durP1;ratioP1;P1;durP2;ratioP2;P2;SDS_P1;SDS_P2;PMS_P1;PMS_P2;Temp;Humidity;BMP_temperature;BMP_pressure;BME280_temperature;BME280_humidity;BME280_pressure;Samples;Min_cycle;Max_cycle;Signal;HPM_P1;HPM_P2
2022/11/11 06:09:39;;;;;;;;;2.00;2.00;;;;;17.96;57.82;102723.47;5114550;27;1309194;-75
2022/11/11 06:12:04;;;;;;;;;2.25;2.25;;;;;18.14;57.95;102723.44;5150244;27;45466;-75
2022/11/11 06:14:29;;;;;;;;;1.75;1.75;;;;;18.36;58.31;102717.78;5157865;27;46127;-76
2022/11/11 06:16:54;;;;;;;;;2.50;2.00;;;;;18.69;58.45;102721.31;5158324;27;48836;-75
2022/11/11 06:19:20;;;;;;;;;2.00;2.00;;;;;19.02;57.56;102716.75;5153150;27;57406;-76
2022/11/11 06:22:54;;;;;;;;;2.67;2.67;;;;;19.39;57.00;102724.47;5164962;27;45477;-75
2022/11/11 06:24:36;;;;;;;;;2.33;1.00;;;;;19.78;56.31;102723.00;5149545;27;45559;-76
2022/11/11 06:27:02;;;;;;;;;2.00;2.00;;;;;20.10;55.30;102724.66;5135371;27;45698;-76
2022/11/11 06:29:27;;;;;;;;;2.00;2.00;;;;;20.41;54.86;102720.00;5156287;27;46268;-76
2022/11/11 06:31:52;;;;;;;;;3.00;1.00;;;;;20.69;54.30;102723.59;5163134;27;58795;-75
2022/11/11 06:34:17;;;;;;;;;1.67;1.00;;;;;20.96;54.12;102732.69;5154779;27;45425;-75
2022/11/11 06:36:43;;;;;;;;;1.00;1.00;;;;;21.18;53.77;102732.97;5162956;27;45560;-76
2022/11/11 06:39:08;;;;;;;;;1.00;1.00;;;;;21.40;53.38;102731.50;5151185;27;46159;-76
2022/11/11 06:41:33;;;;;;;;;3.00;1.33;;;;;21.60;52.86;102742.75;5152926;27;45451;-73
2022/11/11 06:43:59;;;;;;;;;1.00;1.00;;;;;21.77;52.28;102741.59;5154101;27;55127;-73
2022/11/11 06:46:25;;;;;;;;;1.00;1.00;;;;;21.94;51.81;102745.81;5166297;27;45565;-74
2022/11/11 06:48:50;;;;;;;;;1.00;1.00;;;;;22.10;51.35;102748.28;5134032;27;46931;-75
2022/11/11 06:51:16;;;;;;;;;1.00;1.00;;;;;22.22;50.93;102759.19;5154030;27;45539;-74
2022/11/11 06:53:42;;;;;;;;;1.00;1.00;;;;;22.29;51.08;102752.38;5165879;27;45674;-75
2022/11/11 06:56:09;;;;;;;;;3.00;1.33;;;;;22.38;50.21;102756.22;5161256;27;45698;-75
2022/11/11 06:58:34;;;;;;;;;1.00;1.00;;;;;22.47;50.12;102752.84;5156639;27;45705;-75
2022/11/11 07:01:06;;;;;;;;;0.67;0.67;;;;;22.51;49.78;102743.53;5160806;27;45541;-75
2022/11/11 07:03:32;;;;;;;;;1.33;1.33;;;;;22.59;49.92;102744.81;5158986;27;45445;-74
2022/11/11 07:06:03;;;;;;;;;2.67;1.00;;;;;22.63;50.20;102757.16;5152139;27;45473;-75
2022/11/11 07:08:29;;;;;;;;;1.33;1.33;;;;;22.70;49.81;102761.16;5153622;27;47674;-75
2022/11/11 07:10:54;;;;;;;;;2.00;2.00;;;;;22.74;49.59;102754.53;5153394;27;45694;-75
2022/11/11 07:13:20;;;;;;;;;0.00;0.00;;;;;22.81;49.55;102745.94;5152810;27;45320;-75
2022/11/11 07:15:45;;;;;;;;;1.00;1.00;;;;;22.85;49.52;102751.00;5119091;27;48739;-75
2022/11/11 07:18:11;;;;;;;;;0.33;0.33;;;;;22.92;49.24;102751.41;5153041;27;45869;-75
2022/11/11 07:20:37;;;;;;;;;2.00;2.00;;;;;22.99;49.37;102751.81;5147813;27;45467;-75
2022/11/11 07:23:06;;;;;;;;;1.00;1.00;;;;;23.05;49.07;102739.66;5136731;27;45581;-75
2022/11/11 07:25:31;;;;;;;;;2.33;2.33;;;;;23.09;49.01;102738.44;5145160;27;45768;-73
2022/11/11 07:27:56;;;;;;;;;1.67;1.67;;;;;23.12;48.67;102739.06;5141926;27;45634;-71
2022/11/11 07:30:22;;;;;;;;;0.33;0.33;;;;;23.17;49.31;102731.44;5145676;27;45817;-74
2022/11/11 07:32:49;;;;;;;;;1.00;1.00;;;;;23.27;49.20;102737.03;5144176;27;45476;-75
2022/11/11 07:35:16;;;;;;;;;2.00;1.00;;;;;23.35;48.75;102738.31;5146203;27;46045;-76
2022/11/11 07:37:42;;;;;;;;;1.33;1.33;;;;;23.44;48.51;102743.00;5143266;27;45997;-75
2022/11/11 07:40:09;;;;;;;;;1.67;1.67;;;;;23.51;48.36;102738.81;5144615;27;46166;-75
2022/11/11 07:42:36;;;;;;;;;2.00;1.00;;;;;23.57;48.24;102733.94;5143239;27;45672;-75
2022/11/11 07:45:02;;;;;;;;;1.00;1.00;;;;;23.59;48.29;102742.78;5147997;27;45432;-76
2022/11/11 07:47:28;;;;;;;;;1.00;1.00;;;;;23.66;47.63;102744.91;5141845;27;46189;-76
2022/11/11 07:49:53;;;;;;;;;2.00;1.67;;;;;23.67;47.63;102738.47;5145018;27;45484;-76
2022/11/11 07:52:18;;;;;;;;;1.00;1.00;;;;;23.65;47.29;102739.59;5140334;27;52496;-77
2022/11/11 07:54:43;;;;;;;;;0.67;0.67;;;;;23.67;47.57;102741.19;5141182;27;47029;-74
2022/11/11 07:57:09;;;;;;;;;1.00;1.00;;;;;23.67;47.36;102743.06;5141576;27;59099;-74
2022/11/11 07:59:34;;;;;;;;;1.00;1.00;;;;;23.69;47.63;102749.22;5138105;27;45410;-76
2022/11/11 08:01:59;;;;;;;;;1.00;1.00;;;;;23.73;47.50;102753.41;5142571;27;45470;-76
2022/11/11 08:04:25;;;;;;;;;1.00;1.00;;;;;23.79;47.31;102746.66;5136938;27;45361;-75
2022/11/11 08:06:50;;;;;;;;;1.00;1.00;;;;;23.82;47.65;102747.25;5149575;27;45501;-74
